Airfield :
LOGIN :

Register | Disclaimer

   EN    FR    IT 

 










Legend :    VFR   Marginal VFR   IFR   Intensive IFR   Very Intensive IFR
Visi :
Ceiling :
>= 8 km
>= 3000ft
5 to 8 km
1000 to 3000 ft
1500m to 5 km
500 to 1000 ft
800 to 1500m
200 to 500 ft
< 800m
< 200 ft
Symbols :   Thunderstorms  Fog  Heavy snow  Heavy precipitations  Wind > 20 kt
SIGMETs :     Misc.  Thunderstorms  Icing  Turbulence  Mountain Waves  Volcanic Ashes







- Airport Elevation : 935 ft


EBFS - Florennes

CURRENT METAR :
  • 240655Z 20008KT 2400 -RADZ BKN002 BKN003 12/11 Q1022 AMB AMB

EXPIRED METARs :
  • 240625Z 21009KT 3000 -DZ BKN002 BKN003 12/11 Q1022 AMB AMB
  • 240555Z 21009KT 2200 -DZ SCT002 BKN003 12/11 Q1022 AMB AMB
  • 240525Z 21009KT 2200 -DZ SCT002 BKN003 12/11 Q1022 AMB AMB
  • 240455Z 21009KT 1400 -DZ BKN002 12/11 Q1022 AMB AMB
  • 240425Z 21009KT 1400 -DZ BKN002 12/11 Q1022 AMB AMB
  • 240422Z 21009KT 1400 -DZ BKN002 12/11 Q1022 AMB AMB

TAF AMD TAF EBFS
Valid from the 24 at 07:00 until the 24 at 16:00 UTC


240553Z 2407/2416 22009KT 2000 -DZ BKN002 BKN004
BECMG 2408/2410 BKN003 BKN005
TEMPO 2408/2412 1500 DZ BKN002
No reported NOTAMs for that airfield.



MET'MAP, your aeronautical weather chart ! - Copyright ORBIFLY December 2007 - Disclaimer

ORBIFLY MET'MAP TEAM :

Programming & Development : Alexandra Zaïnal
Concept & Development : Baudouin d'Aumeries
Co-Development & Prog : Marc-Olivier Méhu
Technical & hardware support : Manuel Goepfert

Contact : metmap@orbifly.com




SOURCES & CREDITS :

   NOAA